Data for 07/04/2005

Time Sea-Level Adjusted Pressure Absolute Pressure Temperature Relative Humidity Dew Point   
(mb) (inHg) (mb) (inHg) (C) (F) (%) (C) (F)
00:05 1021 30.15 850 25.1 12.5 54.5 52 3.1 37.5
00:10 1021 30.15 850 25.1 12.4 54.3 53 3.3 37.9
00:15 1021 30.15 850 25.1 12.2 54 54 3.3 37.9
00:20 1021 30.15 850 25.1 12 53.6 55 3.4 38.1
00:25 1021 30.15 850 25.1 11.8 53.3 56 3.4 38
00:30 1021 30.15 850 25.1 11.5 52.8 58 3.6 38.4
00:35 1021 30.15 850 25.1 11.4 52.4 57 3.2 37.8
00:40 1021 30.15 850 25.1 11.2 52.2 57 3 37.4
00:45 1021 30.15 850 25.1 11.3 52.3 55 2.7 36.9
00:50 1021 30.15 850 25.1 11.4 52.5 54 2.5 36.4
00:55 1021 30.15 850 25.1 11.4 52.6 55 2.8 37.1
01:00 1021 30.15 850 25.1 11.4 52.6 53 2.3 36.2
01:05 1021 30.15 850 25.1 11.7 53.1 53 2.5 36.5
01:10 1021 30.15 850 25.1 11.7 53.1 54 2.7 36.8
01:15 1021 30.15 850 25.1 11.7 53 51 2.1 35.7
01:20 1021 30.15 850 25.1 11.7 53 54 2.8 37
01:25 1021 30.15 850 25.1 11.7 53 51 2 35.6
01:30 1021 30.15 850 25.1 11.9 53.3 50 2 35.5
01:35 1021 30.15 850 25.1 11.9 53.4 49 1.6 34.9
01:40 1021 30.15 850 25.1 12 53.5 51 2.2 35.9
01:45 1021 30.15 850 25.1 11.5 52.6 52 2 35.5
01:50 1021 30.15 850 25.1 11.5 52.6 53 2.3 36.1
01:55 1021 30.15 850 25.1 11.5 52.6 53 2.3 36.2
02:00 1021 30.15 850 25.1 11.2 52.1 54 2.2 36
02:05 1021 30.15 850 25.1 11.2 52.2 52 1.8 35.3
02:10 1021 30.15 850 25.1 11 51.7 55 2.4 36.3
02:15 1021 30.15 850 25.1 10.8 51.4 55 2.2 35.9
02:20 1021 30.15 850 25.1 11.2 52.1 51 1.4 34.5
02:25 1021 30.15 850 25.1 11.6 52.8 52 2.1 35.8
02:30 1021 30.15 850 25.1 11.2 52.2 53 2 35.6
02:35 1021 30.15 850 25.1 11.3 52.3 52 1.7 35.1
02:40 1021 30.15 850 25.1 11.5 52.7 51 1.9 35.4
02:45 1021 30.15 850 25.1 11.4 52.5 52 1.8 35.3
02:50 1021 30.15 850 25.1 11.2 52.2 53 1.9 35.4
02:55 1021 30.15 850 25.1 10.9 51.6 54 2.1 35.8
03:00 1021 30.15 850 25.1 10.6 51 55 1.9 35.4
03:05 1021 30.15 850 25.1 10.3 50.6 57 2.3 36.1
03:10 1021 30.15 850 25.1 9.9 49.8 59 2.2 36
03:15 1021 30.15 850 25.1 9.9 49.8 58 2.1 35.7
03:20 1021 30.15 850 25.1 9.8 49.7 59 2.2 35.9
03:25 1021 30.15 850 25.1 9.5 49.1 59 2 35.7
03:30 1021 30.15 850 25.1 9.7 49.4 57 1.6 34.9
03:35 1021 30.15 850 25.1 9.9 49.8 57 1.8 35.2
03:40 1021 30.15 850 25.1 10.1 50.1 56 1.6 34.9
03:45 1021 30.15 850 25.1 10.1 50.2 57 2 35.6
03:50 1021 30.15 850 25.1 9.7 49.5 57 1.7 35.1
03:55 1021 30.15 850 25.1 9.9 49.7 57 1.8 35.2
04:00 1021 30.15 850 25.1 9.7 49.4 59 2.1 35.8
04:05 1021 30.15 851 25.13 9.7 49.4 59 2 35.6
04:10 1021 30.15 850 25.1 9.7 49.4 58 1.8 35.2
04:15 1021 30.15 850 25.1 9.6 49.2 59 1.9 35.5
04:20 1021 30.15 850 25.1 9.6 49.3 58 1.7 35.1
04:25 1021 30.15 850 25.1 9.4 48.9 60 2 35.5
04:30 1021 30.15 851 25.13 9.1 48.5 61 2 35.6
04:35 1021 30.15 851 25.13 9 48.2 61 1.9 35.5
04:40 1021 30.15 851 25.13 9.1 48.4 60 1.8 35.3
04:45 1021 30.15 851 25.13 9.2 48.6 58 1.4 34.6
04:50 1021 30.15 851 25.13 9.7 49.5 57 1.6 34.8
04:55 1021 30.15 851 25.13 9.9 49.8 56 1.6 34.9
05:00 1021 30.15 851 25.13 9.5 49.1 61 2.3 36.1
05:05 1021 30.15 851 25.13 8.7 47.7 63 2.2 35.9
05:10 1021 30.15 851 25.13 8.9 48 60 1.6 34.8
05:15 1022 30.18 851 25.13 9.1 48.3 59 1.5 34.6
05:20 1022 30.18 851 25.13 9.1 48.3 62 2.2 35.9
05:25 1022 30.18 851 25.13 8.4 47.1 64 2.1 35.7
05:30 1022 30.18 851 25.13 8.2 46.7 66 2.1 35.8
05:35 1022 30.18 851 25.13 8 46.5 65 1.9 35.4
05:40 1022 30.18 851 25.13 8.1 46.6 64 1.8 35.2
05:45 1022 30.18 851 25.13 8.2 46.7 64 1.7 35.1
05:50 1022 30.18 851 25.13 8.3 46.9 64 1.9 35.4
05:55 1022 30.18 851 25.13 8.3 47 63 1.7 35.1
06:00 1022 30.18 851 25.13 8.5 47.3 62 1.7 35.1
06:05 1022 30.18 851 25.13 8.6 47.5 62 1.9 35.4
06:10 1022 30.18 851 25.13 8.6 47.5 62 1.7 35.1
06:15 1022 30.18 851 25.13 8.8 47.9 61 1.8 35.2
06:20 1022 30.18 851 25.13 9 48.2 61 1.9 35.4
06:25 1022 30.18 851 25.13 9 48.3 61 1.9 35.4
06:30 1022 30.18 851 25.13 9.3 48.7 59 1.8 35.3
06:35 1022 30.18 851 25.13 9.5 49.2 58 1.7 35.1
06:40 1022 30.18 851 25.13 9.7 49.5 58 1.9 35.5
06:45 1022 30.18 851 25.13 9.8 49.6 58 2 35.6
06:50 1022 30.18 851 25.13 10.1 50.2 57 2 35.5
06:55 1022 30.18 851 25.13 10.2 50.4 57 2.2 35.9
07:00 1022 30.18 851 25.13 10.2 50.4 57 2.1 35.8
07:05 1022 30.18 851 25.13 10.5 50.9 55 2 35.6
07:10 1022 30.18 851 25.13 10.7 51.3 56 2.2 36
07:15 1022 30.18 851 25.13 11 51.8 56 2.7 36.8
07:20 1022 30.18 851 25.13 11 51.9 56 2.7 36.9
07:25 1022 30.18 851 25.13 11.1 51.9 57 2.9 37.3
07:30 1022 30.18 851 25.13 11.2 52.1 57 3 37.3
07:35 1022 30.18 851 25.13 11.5 52.7 54 2.6 36.7
07:40 1022 30.18 851 25.13 11.9 53.5 54 3.1 37.5
07:45 1022 30.18 851 25.13 12.3 54.1 53 3.1 37.5
07:50 1022 30.18 851 25.13 12.6 54.6 53 3.2 37.8
07:55 1022 30.18 851 25.13 13.1 55.5 54 4 39.2
08:00 1022 30.18 851 25.13 13.7 56.6 48 2.9 37.2
08:05 1022 30.18 851 25.13 14 57.2 46 2.7 36.9
08:10 1022 30.18 851 25.13 14.7 58.5 46 3.2 37.7
08:15 1022 30.18 851 25.13 14.9 58.8 45 3.2 37.8
08:20 1022 30.18 851 25.13 15.3 59.5 44 3.2 37.8
08:25 1022 30.18 851 25.13 15.5 59.9 44 3.5 38.3
08:30 1022 30.18 851 25.13 15.3 59.6 44 3.3 37.9
08:35 1022 30.18 852 25.16 16 60.7 43 3.5 38.3
08:40 1022 30.18 852 25.16 16.3 61.3 43 3.7 38.7
08:45 1022 30.18 852 25.16 16.6 61.8 42 3.7 38.7
08:50 1022 30.18 852 25.16 16.6 61.9 40 2.9 37.3
08:55 1023 30.21 852 25.16 17.5 63.5 37 2.8 37
09:00 1023 30.21 852 25.16 17.8 64.1 36 2.8 37.1
09:05 1023 30.21 852 25.16 17.7 63.9 35 2.2 36
09:10 1023 30.21 852 25.16 17.9 64.2 35 2.5 36.5
09:15 1023 30.21 852 25.16 18.5 65.3 34 2.5 36.4
09:20 1023 30.21 852 25.16 18.1 64.6 36 2.8 37
09:25 1023 30.21 852 25.16 18 64.3 35 2.4 36.4
09:30 1023 30.21 852 25.16 17 62.5 40 3.3 38
09:35 1023 30.21 852 25.16 17.2 62.9 38 2.9 37.3
09:40 1023 30.21 852 25.16 17.1 62.7 40 3.3 38
09:45 1023 30.21 852 25.16 17.6 63.7 39 3.7 38.7
09:50 1023 30.21 852 25.16 17.7 63.9 39 3.8 38.8
09:55 1023 30.21 852 25.16 17.8 64.1 39 3.7 38.7
10:00 1023 30.21 852 25.16 17.9 64.2 40 4.2 39.5
10:05 1023 30.21 852 25.16 18.2 64.7 39 4 39.2
10:10 1023 30.21 852 25.16 18.6 65.5 35 3.1 37.6
10:15 1023 30.21 852 25.16 19.1 66.3 35 3.5 38.3
10:20 1023 30.21 852 25.16 19.4 66.9 33 3 37.5
10:25 1023 30.21 852 25.16 19.4 66.8 34 3.1 37.6
10:30 1023 30.21 852 25.16 20 68.1 35 4.1 39.5
10:35 1023 30.21 852 25.16 20.2 68.3 32 3.2 37.8
10:40 1023 30.21 852 25.16 20.2 68.3 31 2.9 37.2
10:45 1023 30.21 852 25.16 20 67.9 32 2.9 37.3
10:50 1023 30.21 852 25.16 19.6 67.4 33 3.2 37.7
10:55 1023 30.21 852 25.16 20 68.1 30 2.3 36.1
11:00 1023 30.21 852 25.16 20.4 68.7 32 3.1 37.7
11:05 1023 30.21 852 25.16 19.9 67.7 34 3.5 38.4
11:10 1023 30.21 852 25.16 20.2 68.3 31 2.7 36.9
11:15 1022 30.18 852 25.16 20.9 69.6 29 2.3 36.2
11:20 1022 30.18 852 25.16 21.1 69.9 30 3.1 37.6
11:25 1022 30.18 852 25.16 20.9 69.6 32 3.8 38.8
11:30 1022 30.18 852 25.16 21.4 70.6 32 4.2 39.5
11:35 1022 30.18 852 25.16 22 71.6 29 3.3 37.9
11:40 1022 30.18 852 25.16 21.4 70.5 31 3.7 38.6
11:45 1022 30.18 852 25.16 21.8 71.2 30 3.5 38.3
11:50 1022 30.18 852 25.16 22.1 71.8 30 3.8 38.8
11:55 1022 30.18 852 25.16 21.9 71.4 28 2.7 36.9
12:00 1022 30.18 852 25.16 21.3 70.4 29 3 37.4
12:05 1022 30.18 852 25.16 21.4 70.5 29 2.8 37
12:10 1022 30.18 852 25.16 22 71.6 26 2 35.6
12:15 1022 30.18 852 25.16 22 71.5 27 2.3 36.1
12:20 1022 30.18 852 25.16 22.8 73 25 2 35.6
12:25 1022 30.18 852 25.16 22.8 73 25 2 35.7
12:30 1022 30.18 851 25.13 22.6 72.6 27 2.8 37
12:35 1022 30.18 851 25.13 22.4 72.2 28 3.1 37.6
12:40 1022 30.18 851 25.13 22.1 71.8 27 2.3 36.2
12:45 1022 30.18 851 25.13 22.3 72.1 26 2.2 36
12:50 1022 30.18 851 25.13 22.8 73 26 2.4 36.4
12:55 1022 30.18 851 25.13 22.6 72.6 24 1.3 34.3
13:00 1022 30.18 851 25.13 22.3 72.1 25 1.4 34.6
13:05 1022 30.18 851 25.13 22.4 72.3 25 1.7 35
13:10 1022 30.18 851 25.13 22.6 72.6 25 1.5 34.8
13:15 1022 30.18 851 25.13 22.9 73.2 25 2.2 36
13:20 1022 30.18 851 25.13 23 73.4 24 1.5 34.7
13:25 1022 30.18 851 25.13 22.9 73.2 25 2.1 35.7
13:30 1022 30.18 851 25.13 22.1 71.7 27 2.3 36.1
13:35 1022 30.18 851 25.13 22.7 72.9 25 1.8 35.2
13:40 1022 30.18 851 25.13 23.3 73.9 24 1.5 34.8
13:45 1022 30.18 851 25.13 22.9 73.3 25 2 35.5
13:50 1022 30.18 851 25.13 23.2 73.8 23 1.2 34.2
13:55 1022 30.18 851 25.13 22.9 73.3 25 1.9 35.5
14:00 1022 30.18 851 25.13 23.4 74.1 23 1.2 34.2
14:05 1022 30.18 851 25.13 23.5 74.3 24 2.1 35.7
14:10 1022 30.18 851 25.13 23.6 74.4 23 1.4 34.6
14:15 1022 30.18 851 25.13 23.2 73.7 24 1.5 34.7
14:20 1022 30.18 851 25.13 23.5 74.2 24 2.1 35.7
14:25 1022 30.18 851 25.13 24.1 75.4 22 1.5 34.8
14:30 1022 30.18 851 25.13 24.2 75.6 22 1.5 34.8
14:35 1022 30.18 851 25.13 24.2 75.5 21 0.7 33.3
14:40 1022 30.18 851 25.13 24.5 76.1 21 1.2 34.2
14:45 1022 30.18 851 25.13 23.8 74.9 22 1.4 34.4
14:50 1022 30.18 851 25.13 23.8 74.8 23 1.8 35.2
14:55 1022 30.18 851 25.13 23.2 73.7 24 1.9 35.4
15:00 1022 30.18 851 25.13 23.3 74 24 1.8 35.2
15:05 1022 30.18 851 25.13 23.9 75 23 1.8 35.3
15:10 1022 30.18 851 25.13 23.7 74.6 23 1.8 35.3
15:15 1022 30.18 851 25.13 24 75.2 22 1.5 34.7
15:20 1022 30.18 851 25.13 24.4 75.9 23 2 35.6
15:25 1022 30.18 851 25.13 24.7 76.5 21 1.4 34.5
15:30 1022 30.18 851 25.13 23.8 74.8 22 1.1 34
15:35 1021 30.15 851 25.13 24.2 75.5 21 0.9 33.7
15:40 1021 30.15 851 25.13 24.8 76.6 21 1 33.7
15:45 1021 30.15 851 25.13 25.1 77.3 20 1.2 34.1
15:50 1021 30.15 851 25.13 25.4 77.8 21 1.7 35.1
15:55 1021 30.15 851 25.13 25.1 77.3 21 1.5 34.8
16:00 1021 30.15 851 25.13 24.8 76.7 20 0.9 33.6
16:05 1021 30.15 851 25.13 24.5 76.1 21 1.2 34.2
16:10 1021 30.15 851 25.13 24.5 76 21 1.1 34
16:15 1021 30.15 851 25.13 24.8 76.7 21 1.3 34.3
16:20 1021 30.15 851 25.13 24.8 76.6 22 1.9 35.4
16:25 1021 30.15 851 25.13 24.6 76.2 21 0.8 33.5
16:30 1021 30.15 851 25.13 24.6 76.2 21 1 33.9
16:35 1021 30.15 851 25.13 24.9 76.9 21 1.2 34.1
16:40 1021 30.15 850 25.1 25.1 77.1 21 1.8 35.2
16:45 1021 30.15 850 25.1 24.5 76.2 22 1.5 34.8
16:50 1021 30.15 850 25.1 25.2 77.4 21 1.7 35
16:55 1021 30.15 850 25.1 24.2 75.5 22 1.2 34.2
17:00 1021 30.15 850 25.1 24.9 76.8 22 1.7 35.1
17:05 1021 30.15 850 25.1 25.4 77.6 20 1.3 34.4
17:10 1021 30.15 850 25.1 24.7 76.4 21 1.1 34.1
17:15 1021 30.15 850 25.1 25.1 77.1 21 1.2 34.1
17:20 1021 30.15 850 25.1 25.4 77.7 21 1.8 35.2
17:25 1021 30.15 850 25.1 24.8 76.7 22 1.9 35.3
17:30 1021 30.15 850 25.1 24.9 76.9 20 1 33.8
17:35 1021 30.15 850 25.1 24.9 76.9 21 1.7 35
17:40 1021 30.15 850 25.1 24.5 76.1 22 1.4 34.5
17:45 1021 30.15 850 25.1 24.5 76 21 1.3 34.3
17:50 1021 30.15 850 25.1 23.9 75 22 1.3 34.4
17:55 1021 30.15 850 25.1 24.4 75.9 21 1 33.8
18:00 1021 30.15 850 25.1 24.5 76 21 1 33.9
18:05 1021 30.15 850 25.1 24 75.3 22 1.1 34
18:10 1021 30.15 850 25.1 24.7 76.4 21 1 33.9
18:15 1021 30.15 850 25.1 24.5 76.1 21 1.2 34.1
18:20 1021 30.15 850 25.1 24.3 75.7 21 0.6 33.1
18:25 1021 30.15 850 25.1 24.1 75.3 21 0.9 33.7
18:30 1021 30.15 850 25.1 24.5 76.2 21 1 33.8
18:35 1021 30.15 850 25.1 24.7 76.5 21 1.2 34.1
18:40 1021 30.15 850 25.1 24.1 75.4 21 0.8 33.5
18:45 1021 30.15 850 25.1 24.1 75.3 21 0.7 33.2
18:50 1021 30.15 850 25.1 24.1 75.3 21 0.4 32.7
18:55 1021 30.15 850 25.1 24.3 75.8 19 -0.3 31.5
19:00 1021 30.15 850 25.1 24.3 75.7 20 0.2 32.4
19:05 1021 30.15 850 25.1 24.3 75.7 20 0.4 32.6
19:10 1021 30.15 850 25.1 24.5 76 20 0.4 32.7
19:15 1021 30.15 850 25.1 24 75.1 21 0.3 32.5
19:20 1021 30.15 850 25.1 24.1 75.4 20 0.2 32.4
19:25 1021 30.15 850 25.1 24.6 76.2 20 0.6 33.1
19:30 1021 30.15 850 25.1 24.1 75.5 21 0.7 33.3
19:35 1021 30.15 850 25.1 23.8 74.9 21 0.3 32.6
19:40 1021 30.15 850 25.1 24 75.1 21 0.6 33.2
19:45 1021 30.15 850 25.1 24.2 75.5 21 0.4 32.7
19:50 1021 30.15 850 25.1 24.2 75.6 20 0.3 32.5
19:55 1021 30.15 850 25.1 24.1 75.3 20 0.1 32.2
20:00 1021 30.15 850 25.1 23.6 74.5 21 0.2 32.4
20:05 1021 30.15 850 25.1 23.3 73.9 21 0.1 32.3
20:10 1021 30.15 850 25.1 23.3 73.9 21 -0.1 31.8
20:15 1021 30.15 850 25.1 23.1 73.7 22 0.3 32.5
20:20 1021 30.15 850 25.1 23.1 73.6 22 0.4 32.6
20:25 1021 30.15 850 25.1 23 73.4 22 0.2 32.3
20:30 1021 30.15 850 25.1 22.9 73.3 21 -0.3 31.4
20:35 1021 30.15 850 25.1 22.9 73.2 21 -0.2 31.7
20:40 1021 30.15 850 25.1 22.8 73 22 0 32
20:45 1021 30.15 850 25.1 22.6 72.6 23 0.8 33.4
20:50 1021 30.15 850 25.1 22.4 72.2 27 2.5 36.6
20:55 1021 30.15 850 25.1 22.2 71.9 31 4.3 39.7
21:00 1021 30.15 850 25.1 22 71.5 33 5.1 41.1
21:05 1021 30.15 850 25.1 21.3 70.4 37 6.3 43.3
21:10 1021 30.15 850 25.1 20.7 69.3 42 7.5 45.5
21:15 1021 30.15 850 25.1 20.2 68.4 44 7.7 45.8
21:20 1021 30.15 850 25.1 19.5 67 43 6.8 44.3
21:25 1021 30.15 850 25.1 18.8 65.8 47 7.5 45.4
21:30 1021 30.15 850 25.1 18.1 64.5 50 7.5 45.5
21:35 1021 30.15 850 25.1 17.8 64.1 40 4.3 39.7
21:40 1021 30.15 850 25.1 18.4 65.1 43 5.6 42.1
21:45 1021 30.15 851 25.13 17.7 63.8 48 6.5 43.8
21:50 1021 30.15 851 25.13 17.1 62.7 47 5.9 42.6
21:55 1021 30.15 851 25.13 16.7 62 46 5.3 41.5
22:00 1021 30.15 851 25.13 16.5 61.8 45 4.8 40.7
22:05 1021 30.15 851 25.13 16.4 61.5 46 4.8 40.6
22:10 1021 30.15 851 25.13 16.5 61.7 43 4 39.1
22:15 1021 30.15 851 25.13 16.9 62.4 41 3.8 38.8
22:20 1021 30.15 851 25.13 16.9 62.4 42 4.1 39.3
22:25 1021 30.15 851 25.13 16.5 61.7 44 4.2 39.6
22:30 1021 30.15 851 25.13 16.1 61 45 4.2 39.6
22:35 1021 30.15 851 25.13 15.9 60.6 46 4.3 39.7
22:40 1021 30.15 851 25.13 15.9 60.6 45 4.2 39.5
22:45 1021 30.15 851 25.13 15.6 60.2 46 4.1 39.4
22:50 1022 30.18 851 25.13 15.6 60 46 4.1 39.4
22:55 1022 30.18 851 25.13 15.5 59.9 46 4.1 39.3
23:00 1022 30.18 851 25.13 15.5 59.9 46 3.9 39.1
23:05 1022 30.18 851 25.13 15.5 59.9 48 4.6 40.3
23:10 1022 30.18 851 25.13 15.5 59.9 46 4 39.2
23:15 1022 30.18 851 25.13 15.3 59.6 46 3.8 38.8
23:20 1022 30.18 851 25.13 15.6 60.1 45 3.8 38.9
23:25 1022 30.18 851 25.13 15.8 60.5 43 3.4 38.2
23:30 1022 30.18 851 25.13 15.6 60.1 44 3.5 38.4
23:35 1022 30.18 851 25.13 15.3 59.6 46 3.7 38.7
23:40 1022 30.18 851 25.13 15.1 59.1 47 4 39.2
23:45 1022 30.18 851 25.13 15.1 59.1 46 3.7 38.7
23:50 1022 30.18 851 25.13 14.8 58.6 47 3.7 38.6
23:55 1022 30.18 851 25.13 14.7 58.4 47 3.5 38.3
24:00 1022 30.18 851 25.13 14.8 58.7 45 3.2 37.7